createdAt,value
2023-03-22T00:00:00.477Z,8.60
2023-03-22T00:02:27.573Z,9.18
2023-03-22T00:04:54.777Z,8.00
2023-03-22T00:07:21.836Z,8.60
2023-03-22T00:09:48.856Z,8.05
2023-03-22T00:12:15.850Z,8.63
2023-03-22T00:14:43.079Z,8.45
2023-03-22T00:17:10.119Z,8.32
2023-03-22T00:19:37.527Z,8.32
2023-03-22T00:22:06.407Z,8.10
2023-03-22T00:24:33.602Z,8.32
2023-03-22T00:27:01.156Z,8.15
2023-03-22T00:29:28.350Z,8.05
2023-03-22T00:31:56.420Z,7.80
2023-03-22T00:34:23.607Z,9.00
2023-03-22T00:36:52.031Z,8.27
2023-03-22T00:39:20.110Z,8.70
2023-03-22T00:41:47.862Z,8.43
2023-03-22T00:44:14.843Z,8.02
2023-03-22T00:46:41.870Z,8.27
2023-03-22T00:49:09.092Z,8.10
2023-03-22T00:51:36.098Z,9.02
2023-03-22T00:54:03.178Z,7.95
2023-03-22T00:56:30.211Z,7.85
2023-03-22T00:59:06.401Z,8.33
2023-03-22T01:01:33.539Z,7.97
2023-03-22T01:04:00.699Z,8.07
2023-03-22T01:06:27.849Z,8.27
2023-03-22T01:08:55.377Z,8.15
2023-03-22T01:11:22.492Z,8.10
2023-03-22T01:13:50.069Z,8.43
2023-03-22T01:16:18.059Z,8.75
2023-03-22T01:18:45.553Z,8.95
2023-03-22T01:21:13.006Z,7.60
2023-03-22T01:23:40.717Z,8.43
2023-03-22T01:26:07.901Z,9.05
2023-03-22T01:28:34.903Z,8.93
2023-03-22T01:31:03.240Z,7.88
2023-03-22T01:33:30.927Z,7.68
2023-03-22T01:35:58.399Z,9.15
2023-03-22T01:38:26.264Z,9.13
2023-03-22T01:40:57.541Z,10.07
2023-03-22T01:43:26.861Z,8.63
2023-03-22T01:45:55.410Z,7.68
2023-03-22T01:48:42.168Z,7.95
2023-03-22T01:51:14.444Z,8.88
2023-03-22T01:54:04.500Z,8.65
2023-03-22T01:56:39.229Z,7.93
2023-03-22T01:59:12.887Z,7.03
2023-03-22T02:02:05.474Z,7.28
2023-03-22T02:04:38.478Z,7.20
2023-03-22T02:07:10.334Z,7.43
2023-03-22T02:09:42.860Z,7.45
2023-03-22T02:12:34.175Z,7.00
2023-03-22T02:15:29.109Z,7.50
2023-03-22T02:18:19.076Z,10.43
2023-03-22T02:21:15.614Z,8.05
2023-03-22T02:24:06.326Z,8.48
2023-03-22T02:26:51.486Z,6.18
2023-03-22T02:29:45.322Z,6.50
2023-03-22T02:32:21.679Z,6.50
2023-03-22T02:35:09.701Z,5.03
2023-03-22T02:38:00.911Z,6.25
2023-03-22T02:40:32.201Z,6.13
2023-03-22T02:43:18.464Z,5.85
2023-03-22T02:45:55.414Z,5.40
2023-03-22T02:48:30.354Z,5.63
2023-03-22T02:51:04.050Z,5.15
2023-03-22T02:53:41.284Z,4.95
2023-03-22T02:56:16.853Z,6.57
2023-03-22T02:58:52.118Z,6.25
2023-03-22T03:01:29.355Z,6.90
2023-03-22T03:04:01.661Z,7.68
2023-03-22T03:06:33.684Z,8.00
2023-03-22T03:09:04.967Z,9.32
2023-03-22T03:11:32.638Z,7.90
2023-03-22T03:14:00.123Z,7.18
2023-03-22T03:16:30.910Z,6.20
2023-03-22T03:19:29.824Z,5.75
2023-03-22T03:22:34.757Z,5.22
2023-03-22T03:25:25.995Z,6.53
2023-03-22T03:28:23.147Z,7.97
2023-03-22T03:31:22.790Z,8.68
2023-03-22T03:36:37.912Z,13.63
2023-03-22T03:39:10.097Z,19.17
2023-03-22T03:41:38.048Z,19.67
2023-03-22T03:44:06.283Z,23.88
2023-03-22T03:46:33.562Z,31.95
2023-03-22T03:49:02.917Z,14.27
2023-03-22T03:51:30.214Z,10.35
2023-03-22T03:53:57.143Z,17.73
2023-03-22T03:56:24.355Z,10.85
2023-03-22T03:58:52.579Z,11.40
2023-03-22T04:01:20.848Z,8.20
2023-03-22T04:04:10.634Z,8.05
2023-03-22T04:06:50.307Z,5.05
2023-03-22T04:09:22.067Z,7.95
2023-03-22T04:11:57.611Z,14.77
2023-03-22T04:14:26.666Z,12.50
2023-03-22T04:16:56.561Z,12.45
2023-03-22T04:19:24.849Z,13.20
2023-03-22T04:21:53.300Z,18.95
2023-03-22T04:24:22.255Z,19.45
2023-03-22T04:26:52.733Z,20.77
2023-03-22T04:29:36.783Z,12.10
2023-03-22T04:32:24.789Z,13.52
2023-03-22T04:34:53.448Z,11.73
2023-03-22T04:37:24.683Z,9.65
2023-03-22T04:40:07.363Z,18.67
2023-03-22T04:43:06.589Z,11.23
2023-03-22T04:45:46.383Z,16.33
2023-03-22T04:48:20.649Z,16.25
2023-03-22T04:50:47.855Z,19.05
2023-03-22T04:53:15.182Z,13.05
2023-03-22T04:55:45.575Z,15.30
2023-03-22T04:58:12.722Z,7.38
2023-03-22T05:00:42.513Z,12.35
2023-03-22T05:03:11.117Z,8.65
2023-03-22T05:05:50.991Z,4.60
2023-03-22T05:08:17.988Z,4.32
2023-03-22T05:10:47.795Z,3.28
2023-03-22T05:13:14.767Z,3.22
2023-03-22T05:15:45.783Z,3.30
2023-03-22T05:18:16.654Z,4.63
2023-03-22T05:20:44.270Z,5.03
2023-03-22T05:23:19.378Z,4.80
2023-03-22T05:25:50.788Z,3.78
2023-03-22T05:28:19.827Z,4.13
2023-03-22T05:31:05.848Z,3.63
2023-03-22T05:33:42.523Z,3.85
2023-03-22T05:36:12.901Z,3.80
2023-03-22T05:38:56.682Z,3.47
2023-03-22T05:41:24.335Z,2.80
2023-03-22T05:43:51.462Z,2.65
2023-03-22T05:46:19.105Z,2.67
2023-03-22T05:49:11.672Z,2.50
2023-03-22T05:51:42.219Z,2.53
2023-03-22T05:54:11.020Z,2.70
2023-03-22T05:56:44.377Z,2.50
2023-03-22T05:59:11.554Z,2.45
2023-03-22T06:01:39.573Z,2.70
2023-03-22T06:04:21.233Z,2.80
2023-03-22T06:07:01.038Z,2.22
2023-03-22T06:09:57.411Z,2.45
2023-03-22T06:12:30.244Z,2.20
2023-03-22T06:15:08.704Z,2.10
2023-03-22T06:17:36.274Z,2.25
2023-03-22T06:20:10.346Z,2.60
2023-03-22T06:22:39.162Z,2.40
2023-03-22T06:25:08.378Z,2.42
2023-03-22T06:27:40.298Z,1.75
2023-03-22T06:30:08.458Z,1.98
2023-03-22T06:32:47.552Z,1.80
2023-03-22T06:35:15.766Z,1.83
2023-03-22T06:37:43.016Z,2.10
2023-03-22T06:40:10.852Z,2.20
2023-03-22T06:42:38.102Z,2.03
2023-03-22T06:45:14.707Z,2.08
2023-03-22T06:47:45.004Z,1.58
2023-03-22T06:50:12.455Z,1.55
2023-03-22T06:52:55.294Z,1.52
2023-03-22T06:55:22.528Z,1.58
2023-03-22T06:57:49.962Z,1.50
2023-03-22T07:00:17.301Z,1.77
2023-03-22T07:02:44.313Z,1.75
2023-03-22T07:05:31.744Z,2.17
2023-03-22T07:07:58.937Z,2.13
2023-03-22T07:10:36.271Z,1.75
2023-03-22T07:13:04.210Z,2.08
2023-03-22T07:15:33.112Z,1.95
2023-03-22T07:18:08.685Z,2.00
2023-03-22T07:20:41.733Z,2.58
2023-03-22T07:23:10.918Z,2.63
2023-03-22T07:25:47.188Z,2.80
2023-03-22T07:28:22.974Z,2.67
2023-03-22T07:30:59.199Z,2.60
2023-03-22T07:33:26.518Z,2.85
2023-03-22T07:35:55.995Z,3.63
2023-03-22T07:38:23.349Z,3.22
2023-03-22T07:40:54.805Z,3.15
2023-03-22T07:43:25.040Z,3.25
2023-03-22T07:45:58.270Z,3.35
2023-03-22T07:48:43.568Z,2.88
2023-03-22T07:51:33.606Z,3.20
2023-03-22T07:54:01.479Z,3.97
2023-03-22T07:56:29.509Z,3.35
2023-03-22T07:58:56.879Z,4.30
2023-03-22T08:01:24.817Z,4.32
2023-03-22T08:03:54.658Z,3.75
2023-03-22T08:06:40.527Z,3.35
2023-03-22T08:09:08.600Z,3.20
2023-03-22T08:11:36.486Z,4.20
2023-03-22T08:14:03.508Z,4.07
2023-03-22T08:16:33.955Z,3.65
2023-03-22T08:19:04.317Z,3.45
2023-03-22T08:21:35.366Z,3.97
2023-03-22T08:24:03.917Z,3.70
2023-03-22T08:26:54.085Z,3.28
2023-03-22T08:29:28.480Z,4.22
2023-03-22T08:32:02.167Z,3.90
2023-03-22T08:34:33.436Z,3.60
2023-03-22T08:37:00.692Z,4.18
2023-03-22T08:39:28.088Z,4.00
2023-03-22T08:42:07.087Z,3.47
2023-03-22T08:44:35.506Z,4.30
2023-03-22T08:47:05.923Z,4.65
2023-03-22T08:49:33.536Z,4.72
2023-03-22T08:52:08.878Z,4.07
2023-03-22T08:54:58.851Z,4.07
2023-03-22T08:57:51.893Z,4.15
2023-03-22T09:00:49.016Z,4.30
2023-03-22T09:03:43.599Z,4.13
2023-03-22T09:06:11.327Z,4.53
2023-03-22T09:08:42.208Z,5.60
2023-03-22T09:11:17.637Z,6.10
2023-03-22T09:13:46.380Z,5.85
2023-03-22T09:16:13.641Z,6.22
2023-03-22T09:18:43.438Z,5.70
2023-03-22T09:21:15.270Z,5.78
2023-03-22T09:23:56.829Z,5.40
2023-03-22T09:26:37.537Z,6.13
2023-03-22T09:29:06.120Z,7.13
2023-03-22T09:31:34.111Z,8.48
2023-03-22T09:34:22.153Z,13.05
2023-03-22T09:36:49.644Z,20.55
2023-03-22T09:39:20.064Z,11.63
2023-03-22T09:41:59.566Z,28.02
2023-03-22T09:44:29.797Z,27.42
2023-03-22T10:17:54.757Z,8.93
2023-03-22T10:20:30.624Z,10.45
2023-03-22T10:23:00.146Z,12.80
2023-03-22T10:25:42.478Z,16.90
2023-03-22T10:28:34.982Z,9.52
2023-03-22T10:31:05.207Z,12.45
2023-03-22T10:33:50.648Z,18.50
2023-03-22T10:36:22.469Z,19.65
2023-03-22T10:38:58.070Z,3.90
2023-03-22T10:41:27.875Z,16.02
2023-03-22T10:44:00.433Z,18.38
2023-03-22T10:46:33.744Z,15.48
2023-03-22T10:49:02.376Z,4.85
2023-03-22T10:51:48.880Z,14.88
2023-03-22T10:54:21.338Z,11.95
2023-03-22T10:56:48.523Z,16.33
2023-03-22T10:59:42.637Z,10.70
2023-03-22T11:02:32.046Z,9.40
2023-03-22T11:05:02.105Z,15.82
2023-03-22T11:07:42.994Z,10.00
2023-03-22T11:10:09.935Z,13.40
2023-03-22T11:12:47.341Z,6.90
2023-03-22T11:15:26.485Z,10.93
2023-03-22T11:17:58.684Z,4.32
2023-03-22T11:20:26.212Z,9.57
2023-03-22T11:22:53.512Z,4.50
2023-03-22T11:25:31.606Z,5.47
2023-03-22T11:28:10.363Z,4.45
2023-03-22T11:30:37.771Z,4.28
2023-03-22T11:33:20.112Z,4.15
2023-03-22T11:35:54.022Z,4.45
2023-03-22T11:38:40.091Z,2.90
2023-03-22T11:41:25.242Z,1.80
2023-03-22T11:43:55.618Z,2.13
2023-03-22T11:46:23.548Z,2.55
2023-03-22T11:48:53.118Z,2.25
2023-03-22T11:51:30.620Z,2.00
2023-03-22T11:54:06.733Z,2.00
2023-03-22T11:59:13.564Z,1.30
2023-03-22T12:01:43.203Z,1.30
2023-03-22T12:04:16.549Z,1.65
2023-03-22T12:06:44.406Z,2.10
2023-03-22T12:09:25.868Z,2.20
2023-03-22T12:11:57.476Z,2.40
2023-03-22T12:14:49.146Z,2.03
2023-03-22T12:17:19.048Z,2.50
2023-03-22T12:20:13.710Z,2.05
2023-03-22T12:22:51.272Z,1.92
2023-03-22T12:25:27.149Z,1.90
2023-03-22T12:27:58.281Z,2.00
2023-03-22T12:30:36.485Z,1.60
2023-03-22T12:33:10.737Z,1.60
2023-03-22T12:35:43.835Z,1.50
2023-03-22T12:38:28.213Z,1.60
2023-03-22T12:41:00.816Z,1.27
2023-03-22T12:43:54.500Z,1.70
2023-03-22T12:46:26.443Z,1.50
2023-03-22T12:49:02.956Z,1.30
2023-03-22T12:53:59.742Z,0.85
2023-03-22T12:56:38.448Z,1.10
2023-03-22T12:59:12.727Z,1.10
2023-03-22T13:01:59.181Z,0.68
2023-03-22T13:04:28.531Z,1.00
2023-03-22T13:07:08.944Z,1.10
2023-03-22T13:09:50.469Z,0.90
2023-03-22T13:12:17.653Z,0.90
2023-03-22T13:14:50.989Z,0.88
2023-03-22T13:17:24.376Z,0.90
2023-03-22T13:20:08.144Z,0.88
2023-03-22T13:22:38.306Z,1.25
2023-03-22T13:25:14.701Z,1.33
2023-03-22T13:28:03.638Z,1.00
2023-03-22T13:30:37.028Z,0.93
2023-03-22T13:33:09.891Z,0.90
2023-03-22T13:35:51.382Z,1.10
2023-03-22T13:38:30.593Z,0.80
2023-03-22T13:41:07.949Z,0.80
2023-03-22T13:43:46.967Z,0.90
2023-03-22T13:46:53.993Z,0.50
2023-03-22T13:49:42.619Z,0.80
2023-03-22T13:52:22.348Z,0.93
2023-03-22T13:54:52.473Z,0.90
2023-03-22T13:57:45.327Z,0.75
2023-03-22T14:00:36.831Z,1.10
2023-03-22T14:03:27.361Z,0.90
2023-03-22T14:06:09.650Z,0.60
2023-03-22T14:08:38.067Z,0.98
2023-03-22T14:11:16.564Z,0.88
2023-03-22T14:13:49.328Z,0.73
2023-03-22T14:16:21.094Z,0.80
2023-03-22T14:18:49.793Z,0.85
2023-03-22T14:21:35.669Z,0.68
